createdAt,value
2019-02-16T00:05:48.093Z,55.6
2019-02-16T00:22:36.551Z,55.2
2019-02-16T00:39:23.440Z,55.2
2019-02-16T00:56:11.133Z,54.8
2019-02-16T01:12:58.551Z,54.8
2019-02-16T01:29:45.940Z,54.4
2019-02-16T01:46:33.212Z,54.4
2019-02-16T02:03:20.532Z,54.4
2019-02-16T02:20:07.618Z,54.4
2019-02-16T02:36:54.589Z,53.6
2019-02-16T02:53:41.391Z,53.6
2019-02-16T03:10:28.192Z,53.6
2019-02-16T03:27:14.777Z,53.6
2019-02-16T03:44:01.312Z,53.2
2019-02-16T04:00:47.679Z,53.2
2019-02-16T04:17:34.590Z,53.2
2019-02-16T04:34:20.311Z,53.2
2019-02-16T04:51:06.374Z,52.4
2019-02-16T05:07:52.411Z,52.4
2019-02-16T05:24:38.253Z,52.4
2019-02-16T05:41:24.141Z,52.4
2019-02-16T05:58:10.314Z,52.0
2019-02-16T06:14:55.916Z,52.0
2019-02-16T06:31:41.645Z,52.0
2019-02-16T06:48:27.316Z,52.0
2019-02-16T07:05:13.085Z,52.0
2019-02-16T07:21:58.964Z,52.0
2019-02-16T07:38:44.627Z,52.0
2019-02-16T07:55:30.223Z,51.6
2019-02-16T08:12:15.964Z,50.8
2019-02-16T08:29:01.681Z,50.4
2019-02-16T08:45:47.776Z,49.6
2019-02-16T09:02:34.407Z,49.6
2019-02-16T09:19:21.177Z,49.2
2019-02-16T09:36:08.384Z,49.6
2019-02-16T09:52:55.241Z,49.2
2019-02-16T10:09:42.627Z,49.2
2019-02-16T10:26:30.385Z,49.2
2019-02-16T10:43:18.388Z,49.2
2019-02-16T11:00:06.519Z,49.6
2019-02-16T11:16:55.071Z,49.6
2019-02-16T11:33:43.643Z,49.6
2019-02-16T11:50:32.600Z,49.2
2019-02-16T12:07:21.746Z,49.2
2019-02-16T12:24:10.966Z,48.8
2019-02-16T12:41:00.216Z,48.8
2019-02-16T12:57:49.820Z,48.4
2019-02-16T13:14:38.866Z,48.4
2019-02-16T13:31:28.228Z,48.4
2019-02-16T13:48:17.769Z,48.4
2019-02-16T14:05:07.274Z,48.4
2019-02-16T14:21:56.894Z,48.4
2019-02-16T14:38:46.550Z,48.8
2019-02-16T14:55:35.858Z,48.8
2019-02-16T15:12:25.334Z,48.8
2019-02-16T15:20:50.082Z,46.8
2019-02-16T15:26:00.672Z,44.4
2019-02-16T15:32:36.404Z,42.4
2019-02-16T15:49:24.862Z,42.0
2019-02-16T16:06:13.415Z,42.8
2019-02-16T16:23:02.334Z,43.6
2019-02-16T18:54:23.308Z,50.0
2019-02-16T19:11:11.353Z,50.0
2019-02-16T19:27:59.638Z,50.0
2019-02-16T19:44:47.697Z,50.4
2019-02-16T20:01:35.761Z,50.4
2019-02-16T20:18:23.813Z,50.4
2019-02-16T20:35:11.662Z,50.4
2019-02-16T20:51:59.608Z,50.4
2019-02-16T21:08:47.586Z,50.4
2019-02-16T21:25:35.256Z,50.8
2019-02-16T21:42:23.361Z,50.4
2019-02-16T21:59:18.999Z,50.8
2019-02-16T22:15:58.746Z,50.8
2019-02-16T22:32:54.351Z,50.8
2019-02-16T22:49:34.402Z,50.8
2019-02-16T23:06:22.222Z,50.8
2019-02-16T23:23:09.955Z,50.8
2019-02-16T23:39:57.458Z,50.8
2019-02-16T23:56:44.951Z,50.8
